»·PEaware :: N735WU KBUR-KLAS

N735WU :: KBUR-KLAS

FLIGHT INFORMATION

Flight Status: Arrived
Operator: Privately registered:
United States
More flights under this callsign
Pilot: Gary C. (3469)
Aircraft: CESSNA 182 SKYLANE
(C182)
More flights by this aircraft type
Origin: KBUR Bob Hope-Burbank
United States
Destination: KLAS McCarran Intl
United States
More flights between these airports :: More routes between these airports
Route: VNY3 DAG CRESO4
File this flight plan on PilotEdge
Remarks: I5 rating
Altitude:
(Current/Filed)
11,000ft
Speed:
(Current/Filed)
135kts
Departed: 06-Jan-21 03:52 PM
Arrived: 06-Jan-21 05:27 PM
Distance/Time
Traveled:
193nm/1:35
Distance/Time
To Go:
Arrived

Flight Plot

Page will automatically refresh every two minutes.

Flight plan parsing failed; only flown route is shown


Map Options




Map Legend


Flown Route
Filed Route
Departure Airport
Arrival Airport
Navaid (VOR, NDB)
Fix

Horizontal Profiles

Position Reports

Time Latitude Longitude Heading Altitude Ground
Speed
06-Jan-21 15:31 34.196208 -118.367598 1 723ft 0kts
06-Jan-21 15:32 34.196208 -118.367598 1 723ft 0kts
06-Jan-21 15:33 34.196208 -118.367598 1 723ft 0kts
06-Jan-21 15:34 34.196208 -118.367598 1 723ft 0kts
06-Jan-21 15:34 34.196208 -118.367598 1 723ft 0kts
06-Jan-21 15:36 34.196208 -118.367598 1 723ft 0kts
06-Jan-21 15:37 34.196208 -118.367598 1 723ft 0kts
06-Jan-21 15:37 34.196208 -118.367598 1 723ft 0kts
06-Jan-21 15:38 34.196208 -118.367598 1 723ft 0kts
06-Jan-21 15:40 34.196208 -118.367598 1 723ft 0kts
06-Jan-21 15:40 34.196208 -118.367598 1 723ft 0kts
06-Jan-21 15:41 34.196208 -118.367598 1 723ft 0kts
06-Jan-21 15:42 34.196208 -118.367598 1 723ft 0kts
06-Jan-21 15:43 34.196208 -118.367598 1 723ft 0kts
06-Jan-21 15:44 34.196208 -118.367598 1 723ft 0kts
06-Jan-21 15:45 34.196208 -118.367598 1 723ft 0kts
06-Jan-21 15:46 34.196240 -118.367599 346 723ft 0kts
06-Jan-21 15:47 34.196947 -118.366855 316 725ft 12kts
06-Jan-21 15:48 34.196989 -118.368711 289 725ft 0kts
06-Jan-21 15:49 34.196989 -118.368711 289 725ft 0kts
06-Jan-21 15:50 34.197194 -118.369077 322 726ft 24kts
06-Jan-21 15:51 34.197047 -118.349850 101 1030ft 108kts
06-Jan-21 15:52 34.175342 -118.347201 229 2101ft 115kts
06-Jan-21 15:53 34.149780 -118.373980 225 2963ft 126kts
06-Jan-21 15:54 34.138664 -118.407896 331 3704ft 133kts
06-Jan-21 15:55 34.167249 -118.419482 342 5254ft 98kts
06-Jan-21 15:56 34.190981 -118.430772 342 6647ft 95kts
06-Jan-21 15:57 34.215021 -118.442656 342 7993ft 94kts
06-Jan-21 15:58 34.240011 -118.454182 355 9303ft 97kts
06-Jan-21 15:59 34.262438 -118.436328 44 10522ft 106kts
06-Jan-21 16:00 34.289831 -118.408746 46 10930ft 155kts
06-Jan-21 16:01 34.322284 -118.372782 41 10925ft 164kts
06-Jan-21 16:02 34.357262 -118.338494 43 11006ft 162kts
06-Jan-21 16:03 34.393056 -118.304537 43 10978ft 164kts
06-Jan-21 16:04 34.428284 -118.269429 41 10975ft 164kts
06-Jan-21 16:05 34.464861 -118.236579 32 10946ft 165kts
06-Jan-21 16:06 34.498527 -118.200159 43 11065ft 159kts
06-Jan-21 16:07 34.533174 -118.164736 43 10930ft 170kts
06-Jan-21 16:08 34.567735 -118.127992 47 10902ft 165kts
06-Jan-21 16:09 34.604293 -118.093306 41 10869ft 162kts
06-Jan-21 16:10 34.634307 -118.055755 81 11014ft 164kts
06-Jan-21 16:11 34.637452 -117.999451 86 10879ft 166kts
06-Jan-21 16:12 34.645349 -117.945147 85 10972ft 160kts
06-Jan-21 16:13 34.650618 -117.890404 93 10935ft 164kts
06-Jan-21 16:14 34.656939 -117.835177 83 10946ft 160kts
06-Jan-21 16:15 34.663160 -117.780699 87 10950ft 163kts
06-Jan-21 16:16 34.674003 -117.726922 71 10908ft 162kts
06-Jan-21 16:17 34.688527 -117.675075 75 10976ft 162kts
06-Jan-21 16:18 34.700771 -117.620349 69 10697ft 171kts
06-Jan-21 16:19 34.715589 -117.568811 71 10881ft 161kts
06-Jan-21 16:20 34.728206 -117.516470 76 10901ft 165kts
06-Jan-21 16:21 34.742399 -117.463267 73 10892ft 164kts
06-Jan-21 16:22 34.754668 -117.410566 71 10958ft 162kts
06-Jan-21 16:23 34.769190 -117.357469 74 10848ft 167kts
06-Jan-21 16:24 34.781816 -117.304421 74 10989ft 159kts
06-Jan-21 16:25 34.794936 -117.251819 76 10917ft 166kts
06-Jan-21 16:26 34.808291 -117.198731 79 10897ft 167kts
06-Jan-21 16:27 34.822576 -117.145526 74 10927ft 162kts
06-Jan-21 16:28 34.836747 -117.093129 78 10982ft 159kts
06-Jan-21 16:29 34.848811 -117.040015 84 10994ft 160kts
06-Jan-21 16:30 34.861030 -116.986739 78 10914ft 167kts
06-Jan-21 16:31 34.874783 -116.932063 75 10803ft 164kts
06-Jan-21 16:32 34.887670 -116.880023 82 10894ft 165kts
06-Jan-21 16:33 34.901434 -116.827213 75 10917ft 165kts
06-Jan-21 16:34 34.914411 -116.774236 75 11025ft 160kts
06-Jan-21 16:35 34.928338 -116.721212 76 10991ft 163kts
06-Jan-21 16:36 34.941273 -116.667435 76 11008ft 160kts
06-Jan-21 16:37 34.953786 -116.614631 80 11016ft 165kts
06-Jan-21 16:38 34.972799 -116.562921 62 10951ft 160kts
06-Jan-21 16:39 34.992011 -116.513020 64 10961ft 164kts
06-Jan-21 16:40 35.013737 -116.463454 72 10926ft 164kts
06-Jan-21 16:41 35.036331 -116.415319 66 11034ft 156kts
06-Jan-21 16:42 35.057743 -116.366346 61 11016ft 160kts
06-Jan-21 16:43 35.078920 -116.317639 61 10990ft 167kts
06-Jan-21 16:44 35.100183 -116.266640 69 10821ft 169kts
06-Jan-21 16:45 35.122435 -116.218541 67 11042ft 158kts
06-Jan-21 16:46 35.142693 -116.167648 59 10836ft 167kts
06-Jan-21 16:47 35.165776 -116.118634 66 10844ft 160kts
06-Jan-21 16:48 35.188232 -116.069604 64 10831ft 162kts
06-Jan-21 16:49 35.208987 -116.020635 63 10848ft 165kts
06-Jan-21 16:50 35.234211 -115.974335 70 10858ft 165kts
06-Jan-21 16:51 35.251394 -115.922723 69 10898ft 166kts
06-Jan-21 16:52 35.274425 -115.875234 58 11014ft 160kts
06-Jan-21 16:53 35.293825 -115.825067 67 11050ft 161kts
06-Jan-21 16:54 35.316760 -115.776394 50 10872ft 170kts
06-Jan-21 16:55 35.349624 -115.735841 46 10890ft 162kts
06-Jan-21 16:56 35.379085 -115.694423 50 10840ft 168kts
06-Jan-21 16:57 35.407548 -115.647837 49 10595ft 166kts
06-Jan-21 16:58 35.442168 -115.609976 49 10503ft 166kts
06-Jan-21 16:59 35.473012 -115.569136 50 10611ft 160kts
06-Jan-21 17:00 35.504899 -115.527486 46 10466ft 166kts
06-Jan-21 17:01 35.535536 -115.486276 48 10575ft 160kts
06-Jan-21 17:02 35.566477 -115.444199 56 10521ft 161kts
06-Jan-21 17:03 35.598301 -115.406883 65 10513ft 163kts
06-Jan-21 17:04 35.627623 -115.364270 47 10521ft 164kts
06-Jan-21 17:06 35.656654 -115.321687 54 10574ft 163kts
06-Jan-21 17:07 35.688025 -115.280894 53 10531ft 164kts
06-Jan-21 17:08 35.718504 -115.238662 51 9923ft 170kts
06-Jan-21 17:09 35.749952 -115.199613 54 8914ft 156kts
06-Jan-21 17:10 35.776894 -115.160117 53 8207ft 141kts
06-Jan-21 17:11 35.802408 -115.122212 50 7399ft 143kts
06-Jan-21 17:12 35.830857 -115.087506 53 7073ft 149kts
06-Jan-21 17:13 35.859758 -115.048349 52 7078ft 155kts
06-Jan-21 17:14 35.890469 -115.008340 43 6938ft 158kts
06-Jan-21 17:15 35.919263 -114.967966 53 6953ft 156kts
06-Jan-21 17:16 35.951845 -114.930269 30 5957ft 156kts
06-Jan-21 17:17 35.985191 -114.907034 36 6078ft 128kts
06-Jan-21 17:18 36.019645 -114.882441 38 5351ft 154kts
06-Jan-21 17:18 36.050970 -114.865611 359 4972ft 143kts
06-Jan-21 17:20 36.078290 -114.901984 274 4969ft 127kts
06-Jan-21 17:21 36.074097 -114.945026 270 5003ft 126kts
06-Jan-21 17:21 36.074014 -114.979416 270 4107ft 109kts
06-Jan-21 17:23 36.073633 -115.022738 276 3710ft 113kts
06-Jan-21 17:23 36.073607 -115.055164 279 3161ft 117kts
06-Jan-21 17:24 36.073285 -115.092811 271 2538ft 103kts
06-Jan-21 17:26 36.073614 -115.125692 274 2099ft 71kts
06-Jan-21 17:26 36.073579 -115.137091 267 2077ft 12kts
06-Jan-21 17:27 36.073486 -115.145811 266 2102ft 28kts
06-Jan-21 17:28 36.073518 -115.155179 263 2139ft 29kts
06-Jan-21 17:29 36.073590 -115.161068 332 2162ft 11kts
06-Jan-21 17:30 36.074948 -115.161508 355 2161ft 0kts
06-Jan-21 17:31 36.078038 -115.161517 328 2152ft 0kts
06-Jan-21 17:32 36.077984 -115.162427 261 2155ft 4kts
06-Jan-21 17:33 36.077995 -115.165907 272 2166ft 17kts
06-Jan-21 17:34 36.078168 -115.170749 325 2180ft 5kts
06-Jan-21 17:35 36.082992 -115.168311 19 2162ft 20kts
06-Jan-21 17:36 36.086004 -115.167771 205 2154ft 23kts
06-Jan-21 17:37 36.085731 -115.167917 202 2155ft 0kts
06-Jan-21 17:38 36.085730 -115.167917 202 2155ft 0kts

Navigation Log

Ident Type
Flight plan parsing failed, navigation log unavailable